Time;durP1;ratioP1;P1;durP2;ratioP2;P2;SDS_P1;SDS_P2;PMS_P1;PMS_P2;Temp;Humidity;BMP_temperature;BMP_pressure;BME280_temperature;BME280_humidity;BME280_pressure;Samples;Min_cycle;Max_cycle;Signal;HPM_P1;HPM_P2
2022/08/06 00:02:27;;;;;;;4.90;2.40;;;;;;;11.73;96.59;102510.28;5088150;28;20103;-63
2022/08/06 00:04:53;;;;;;;5.03;1.98;;;;;;;11.77;96.36;102512.25;5087809;28;20039;-62
2022/08/06 00:07:18;;;;;;;4.95;2.10;;;;;;;11.73;96.23;102515.47;5087648;28;20441;-62
2022/08/06 00:09:44;;;;;;;5.45;1.65;;;;;;;11.66;96.32;102523.75;5087078;28;20061;-62
2022/08/06 00:12:10;;;;;;;4.97;2.25;;;;;;;11.58;97.58;102530.25;5088198;28;20028;-62
2022/08/06 00:14:36;;;;;;;5.20;2.53;;;;;;;11.54;97.48;102523.97;5086857;28;20442;-62
2022/08/06 00:17:02;;;;;;;5.05;2.35;;;;;;;11.46;97.72;102526.16;5087559;28;20043;-62
2022/08/06 00:19:27;;;;;;;5.07;2.28;;;;;;;11.43;98.92;102530.28;5087503;28;20020;-62
2022/08/06 00:21:53;;;;;;;5.00;1.92;;;;;;;11.39;98.71;102529.22;5086505;28;20024;-62
2022/08/06 00:24:19;;;;;;;5.75;2.20;;;;;;;11.37;99.44;102526.53;5087554;28;20036;-62
2022/08/06 00:26:45;;;;;;;6.32;2.25;;;;;;;11.38;99.04;102528.34;5087385;28;20443;-62
2022/08/06 00:29:11;;;;;;;3.53;2.28;;;;;;;11.37;98.50;102530.84;5087460;28;20028;-62
2022/08/06 00:31:36;;;;;;;5.28;2.10;;;;;;;11.34;98.56;102538.44;5087181;28;20030;-62
2022/08/06 00:34:03;;;;;;;4.72;2.35;;;;;;;11.33;98.40;102544.44;5087254;28;20474;-63
2022/08/06 00:36:30;;;;;;;6.65;1.95;;;;;;;11.32;98.48;102551.34;5087189;28;20064;-62
2022/08/06 00:38:59;;;;;;;6.20;2.15;;;;;;;11.31;98.43;102546.97;5087126;28;20031;-62
2022/08/06 00:41:25;;;;;;;5.88;2.53;;;;;;;11.29;98.47;102548.56;5086933;28;20563;-62
2022/08/06 00:43:51;;;;;;;4.28;2.03;;;;;;;11.26;98.92;102549.28;5087651;28;20024;-62
2022/08/06 00:46:16;;;;;;;7.70;2.33;;;;;;;11.24;98.49;102550.88;5086707;28;20467;-62
2022/08/06 00:48:42;;;;;;;3.83;2.15;;;;;;;11.19;99.39;102541.97;5087316;28;20463;-62
2022/08/06 00:51:07;;;;;;;3.70;2.03;;;;;;;11.14;99.69;102543.41;5087462;28;20028;-62
2022/08/06 00:53:33;;;;;;;8.45;2.38;;;;;;;11.11;100.00;102544.13;5087294;28;20023;-62
2022/08/06 00:55:58;;;;;;;5.47;2.55;;;;;;;11.11;99.59;102551.00;5087655;28;20546;-62
2022/08/06 00:58:23;;;;;;;3.15;2.20;;;;;;;11.08;99.69;102556.03;5085694;28;20376;-62
2022/08/06 01:00:49;;;;;;;8.30;2.55;;;;;;;11.04;100.00;102563.63;5086949;28;20020;-61
2022/08/06 01:03:16;;;;;;;4.40;2.60;;;;;;;11.01;100.00;102563.44;5087169;28;20028;-62
2022/08/06 01:05:43;;;;;;;6.72;2.30;;;;;;;10.97;100.00;102566.69;5087177;28;20505;-62
2022/08/06 01:08:08;;;;;;;6.22;2.20;;;;;;;10.94;100.00;102561.31;5086956;28;20024;-62
2022/08/06 01:10:33;;;;;;;7.80;3.38;;;;;;;10.90;100.00;102570.59;5086454;28;20532;-62
2022/08/06 01:12:59;;;;;;;4.38;2.22;;;;;;;10.88;100.00;102572.22;5079276;28;20060;-62
2022/08/06 01:15:24;;;;;;;5.72;2.28;;;;;;;10.88;100.00;102581.72;5081273;28;20379;-62
2022/08/06 01:17:58;;;;;;;4.65;2.75;;;;;;;10.84;100.00;102588.41;5080746;28;20074;-62
2022/08/06 01:20:26;;;;;;;5.13;2.00;;;;;;;10.78;100.00;102577.66;5073903;28;20479;-62
2022/08/06 01:23:30;;;;;;;5.57;2.58;;;;;;;10.74;100.00;102581.78;5086481;28;20418;-62
2022/08/06 01:25:55;;;;;;;7.50;2.65;;;;;;;10.71;100.00;102584.19;5054210;28;20042;-62
2022/08/06 01:28:26;;;;;;;4.43;2.08;;;;;;;10.71;100.00;102584.19;5086256;28;20028;-61
2022/08/06 01:30:59;;;;;;;4.60;2.25;;;;;;;10.71;100.00;102586.78;5086458;28;20142;-61
2022/08/06 01:33:31;;;;;;;4.38;2.80;;;;;;;10.72;100.00;102585.09;5086448;28;20024;-62
2022/08/06 01:36:01;;;;;;;4.78;3.05;;;;;;;10.71;100.00;102589.38;5086283;28;20020;-61
2022/08/06 01:38:34;;;;;;;5.60;2.53;;;;;;;10.70;100.00;102585.00;5068689;28;20031;-61
2022/08/06 01:41:04;;;;;;;3.90;2.72;;;;;;;10.69;100.00;102584.09;5086384;28;20044;-62
2022/08/06 01:43:32;;;;;;;4.40;2.20;;;;;;;10.70;100.00;102590.19;5086896;28;20072;-61
2022/08/06 01:45:59;;;;;;;5.18;2.65;;;;;;;10.69;100.00;102585.81;5086737;28;20093;-61
2022/08/06 01:48:27;;;;;;;5.93;2.70;;;;;;;10.69;100.00;102588.38;5086413;28;20168;-62
2022/08/06 01:50:55;;;;;;;8.52;2.78;;;;;;;10.66;100.00;102588.22;5086556;28;20028;-61
2022/08/06 01:53:34;;;;;;;6.50;2.85;;;;;;;10.63;100.00;102595.81;5086827;28;20036;-61
2022/08/06 01:56:02;;;;;;;8.07;2.78;;;;;;;10.63;100.00;102588.91;5086736;28;20036;-61
2022/08/06 01:58:34;;;;;;;7.28;2.60;;;;;;;10.61;100.00;102590.53;5086075;28;20028;-61
2022/08/06 02:01:03;;;;;;;5.80;2.50;;;;;;;10.57;100.00;102594.66;5086445;28;20107;-62
2022/08/06 02:03:33;;;;;;;6.15;2.78;;;;;;;10.52;100.00;102588.25;5086711;28;20032;-61
2022/08/06 02:06:01;;;;;;;5.30;2.80;;;;;;;10.49;100.00;102589.81;5085948;28;20016;-62
2022/08/06 02:08:30;;;;;;;6.95;2.95;;;;;;;10.44;100.00;102587.78;5085991;28;20476;-62
2022/08/06 02:10:57;;;;;;;5.90;3.08;;;;;;;10.41;100.00;102584.13;5085877;28;20036;-62
2022/08/06 02:13:24;;;;;;;7.95;3.17;;;;;;;10.40;100.00;102583.22;5086669;28;20042;-61
2022/08/06 02:15:51;;;;;;;7.93;2.85;;;;;;;10.41;100.00;102589.31;5083198;28;20025;-62
2022/08/06 02:18:18;;;;;;;7.00;2.85;;;;;;;10.39;100.00;102593.50;5076612;28;20028;-62
2022/08/06 02:20:47;;;;;;;7.30;2.67;;;;;;;10.37;100.00;102592.50;5086536;28;20024;-62
2022/08/06 02:23:18;;;;;;;8.75;2.80;;;;;;;10.32;100.00;102592.22;5085815;28;20331;-61
2022/08/06 02:25:46;;;;;;;7.30;3.30;;;;;;;10.29;100.00;102594.63;5086169;28;20051;-62
2022/08/06 02:28:14;;;;;;;4.43;3.00;;;;;;;10.28;100.00;102601.50;5086465;28;20538;-62
2022/08/06 02:30:42;;;;;;;6.28;2.30;;;;;;;10.28;100.00;102593.75;5086656;28;20081;-61
2022/08/06 02:33:09;;;;;;;8.02;3.03;;;;;;;10.27;100.00;102591.94;5084960;28;20016;-61
2022/08/06 02:35:47;;;;;;;6.07;3.13;;;;;;;10.26;100.00;102595.34;5085666;28;20541;-62
2022/08/06 02:38:33;;;;;;;4.88;2.70;;;;;;;10.26;100.00;102586.66;5088858;28;20108;-61
2022/08/06 02:41:10;;;;;;;5.60;2.60;;;;;;;10.27;100.00;102599.69;5085254;28;20068;-61
2022/08/06 02:43:40;;;;;;;5.95;2.72;;;;;;;10.30;100.00;102599.91;5089551;28;20487;-62
2022/08/06 02:46:11;;;;;;;5.47;2.75;;;;;;;10.27;100.00;102594.53;5089415;28;20121;-62
2022/08/06 02:48:48;;;;;;;5.45;2.92;;;;;;;10.24;100.00;102591.75;5089671;28;20103;-62
2022/08/06 02:51:18;;;;;;;6.70;3.00;;;;;;;10.19;100.00;102598.34;5078402;28;20024;-62
2022/08/06 02:54:02;;;;;;;5.97;2.90;;;;;;;10.18;100.00;102601.75;5087426;28;20095;-62
2022/08/06 02:56:30;;;;;;;7.32;2.85;;;;;;;10.16;100.00;102592.97;5089408;28;20327;-62
2022/08/06 02:58:58;;;;;;;7.00;2.90;;;;;;;10.14;100.00;102599.75;5085715;28;20024;-62
2022/08/06 03:01:30;;;;;;;3.60;2.53;;;;;;;10.14;100.00;102595.47;5090015;28;20142;-62
2022/08/06 03:03:59;;;;;;;4.15;2.35;;;;;;;10.14;100.00;102607.53;5089145;28;20024;-61
2022/08/06 03:06:28;;;;;;;5.90;2.58;;;;;;;10.13;100.00;102608.34;5089107;28;20047;-62
2022/08/06 03:08:55;;;;;;;7.50;2.75;;;;;;;10.12;100.00;102601.34;5088774;28;20099;-62
2022/08/06 03:11:22;;;;;;;4.57;2.80;;;;;;;10.11;100.00;102599.56;5089012;28;20148;-62
2022/08/06 03:13:48;;;;;;;5.53;2.60;;;;;;;10.09;100.00;102610.72;5087568;28;20024;-62
2022/08/06 03:16:15;;;;;;;3.45;2.90;;;;;;;10.06;100.00;102597.59;5076439;28;20027;-62
2022/08/06 03:18:43;;;;;;;5.32;3.15;;;;;;;10.04;100.00;102601.78;5088720;28;20035;-62
2022/08/06 03:21:09;;;;;;;4.13;2.85;;;;;;;10.02;100.00;102603.38;5088776;28;20440;-62
2022/08/06 03:23:36;;;;;;;3.58;2.33;;;;;;;10.02;100.00;102611.13;5088883;28;20035;-62
2022/08/06 03:26:03;;;;;;;4.38;2.95;;;;;;;9.99;100.00;102604.88;5088744;28;20479;-62
2022/08/06 03:28:32;;;;;;;5.03;2.42;;;;;;;9.97;100.00;102608.25;5089274;28;20058;-62
2022/08/06 03:30:59;;;;;;;3.88;2.35;;;;;;;9.96;100.00;102608.19;5080894;28;20044;-62
2022/08/06 03:33:25;;;;;;;6.60;3.08;;;;;;;9.95;100.00;102607.28;5088600;28;20036;-62
2022/08/06 03:35:53;;;;;;;7.88;2.83;;;;;;;9.95;100.00;102611.53;5077505;28;20801;-62
2022/08/06 03:38:19;;;;;;;7.57;2.95;;;;;;;9.90;100.00;102612.94;5068874;28;20062;-62
2022/08/06 03:40:47;;;;;;;6.60;3.00;;;;;;;9.91;100.00;102617.34;5088211;28;20753;-62
2022/08/06 03:43:12;;;;;;;5.75;3.20;;;;;;;9.90;100.00;102615.53;5088328;28;20099;-61
2022/08/06 03:45:44;;;;;;;6.68;3.00;;;;;;;9.88;100.00;102622.31;5088240;28;20115;-61
2022/08/06 03:48:14;;;;;;;6.18;3.03;;;;;;;9.86;100.00;102624.81;5088597;28;20030;-62
2022/08/06 03:50:45;;;;;;;5.78;3.15;;;;;;;9.81;100.00;102621.03;5068951;28;20024;-62
2022/08/06 03:53:19;;;;;;;6.63;3.28;;;;;;;9.78;100.00;102626.94;5074727;28;20451;-62
2022/08/06 03:55:46;;;;;;;7.38;3.65;;;;;;;9.78;100.00;102632.09;5086416;28;20115;-62
2022/08/06 03:58:14;;;;;;;4.03;2.60;;;;;;;9.77;100.00;102634.59;5086730;28;20440;-62
2022/08/06 04:01:02;;;;;;;4.70;3.22;;;;;;;9.72;100.00;102634.28;5086020;28;20141;-61
2022/08/06 04:03:27;;;;;;;5.95;3.10;;;;;;;9.69;100.00;102641.88;5086485;28;21539;-62
2022/08/06 04:05:54;;;;;;;7.20;3.17;;;;;;;9.66;100.00;102645.13;5085736;28;20039;-62
2022/08/06 04:08:21;;;;;;;7.15;3.45;;;;;;;9.66;100.00;102644.25;5086592;28;20028;-62
2022/08/06 04:10:51;;;;;;;4.07;2.75;;;;;;;9.65;100.00;102645.03;5087344;28;20483;-61
2022/08/06 04:13:18;;;;;;;5.15;3.10;;;;;;;9.66;100.00;102646.84;5088036;28;20023;-62
2022/08/06 04:15:44;;;;;;;4.10;3.17;;;;;;;9.67;100.00;102651.22;5087809;28;20106;-61
2022/08/06 04:18:16;;;;;;;6.95;3.00;;;;;;;9.65;100.00;102650.22;5088040;28;20077;-62
2022/08/06 04:20:50;;;;;;;4.28;3.33;;;;;;;9.67;100.00;102648.63;5087966;28;20035;-62
2022/08/06 04:23:15;;;;;;;7.32;3.40;;;;;;;9.67;100.00;102653.81;5087331;28;20035;-61
2022/08/06 04:25:47;;;;;;;8.20;3.30;;;;;;;9.68;100.00;102666.84;5088046;28;20473;-61
2022/08/06 04:28:13;;;;;;;4.45;2.88;;;;;;;9.68;100.00;102661.66;5088141;28;20557;-61
2022/08/06 04:30:39;;;;;;;7.75;3.17;;;;;;;9.70;100.00;102664.34;5087839;28;20040;-62
2022/08/06 04:33:09;;;;;;;5.70;3.28;;;;;;;9.70;100.00;102664.34;5087094;28;20499;-62
2022/08/06 04:35:37;;;;;;;4.72;3.47;;;;;;;9.75;100.00;102665.53;5087692;28;20028;-61
2022/08/06 04:38:03;;;;;;;6.00;3.17;;;;;;;9.80;100.00;102653.81;5087373;28;20111;-61
2022/08/06 04:40:29;;;;;;;7.13;3.30;;;;;;;9.83;100.00;102660.88;5087177;28;20089;-61
2022/08/06 04:42:55;;;;;;;8.38;3.85;;;;;;;9.85;100.00;102661.88;5087264;28;20024;-62
2022/08/06 04:45:21;;;;;;;7.75;4.22;;;;;;;9.89;100.00;102661.28;5087426;28;20058;-61
2022/08/06 04:47:47;;;;;;;3.92;3.00;;;;;;;9.92;100.00;102668.34;5087340;28;20059;-62
2022/08/06 04:50:13;;;;;;;5.03;3.20;;;;;;;9.93;100.00;102668.44;5087186;28;20419;-62
2022/08/06 04:52:39;;;;;;;6.35;3.55;;;;;;;9.97;100.00;102670.44;5086924;28;20081;-62
2022/08/06 04:55:05;;;;;;;3.40;3.10;;;;;;;10.01;100.00;102674.09;5086507;28;20026;-62
2022/08/06 04:57:31;;;;;;;4.85;3.20;;;;;;;10.05;100.00;102682.97;5087219;28;20016;-62
2022/08/06 04:59:56;;;;;;;4.25;3.60;;;;;;;10.09;100.00;102675.47;5086824;28;20035;-62
2022/08/06 05:02:21;;;;;;;6.43;3.50;;;;;;;10.14;100.00;102685.25;5085644;28;20073;-62
2022/08/06 05:04:53;;;;;;;5.55;3.95;;;;;;;10.18;100.00;102684.66;5086980;28;20357;-62
2022/08/06 05:07:27;;;;;;;6.15;4.15;;;;;;;10.21;100.00;102677.06;5066022;28;20117;-62
2022/08/06 05:09:53;;;;;;;4.97;3.80;;;;;;;10.26;100.00;102680.84;5077396;28;20024;-62
2022/08/06 05:12:23;;;;;;;8.50;5.15;;;;;;;10.30;100.00;102685.44;5078557;28;20368;-61
2022/08/06 05:14:55;;;;;;;7.10;4.30;;;;;;;10.36;100.00;102686.59;5081416;28;20057;-61
2022/08/06 05:17:23;;;;;;;6.75;4.53;;;;;;;10.38;100.00;102688.47;5061227;28;20025;-61
2022/08/06 05:20:21;;;;;;;5.07;4.07;;;;;;;10.44;100.00;102693.16;5068988;28;20024;-61
2022/08/06 05:22:52;;;;;;;9.23;4.80;;;;;;;10.52;100.00;102693.66;5040578;28;20105;-62
2022/08/06 05:25:17;;;;;;;8.27;4.38;;;;;;;10.58;100.00;102691.44;5081897;28;20210;-61
2022/08/06 05:27:43;;;;;;;6.65;4.20;;;;;;;10.68;100.00;102704.19;5080583;28;20143;-62
2022/08/06 05:30:09;;;;;;;6.97;4.60;;;;;;;10.79;100.00;102689.25;5068692;28;20379;-62
2022/08/06 05:32:49;;;;;;;5.13;4.15;;;;;;;10.92;100.00;102700.38;5078223;28;20036;-62
2022/08/06 05:35:14;;;;;;;9.18;4.53;;;;;;;11.05;100.00;102705.53;5073933;28;20472;-62
2022/08/06 05:37:40;;;;;;;7.45;4.70;;;;;;;11.16;100.00;102705.25;5078604;28;20032;-62
2022/08/06 05:40:07;;;;;;;7.90;4.68;;;;;;;11.29;100.00;102706.88;5077702;28;20085;-62
2022/08/06 05:42:32;;;;;;;8.52;5.60;;;;;;;11.41;100.00;102711.91;5086849;28;20024;-61
2022/08/06 05:44:57;;;;;;;6.70;4.75;;;;;;;11.53;100.00;102714.34;5085897;28;20027;-62
2022/08/06 05:47:32;;;;;;;7.97;4.75;;;;;;;11.66;100.00;102718.50;5086411;28;20032;-62
2022/08/06 05:50:17;;;;;;;9.60;5.25;;;;;;;11.79;100.00;102716.63;5056808;28;20504;-62
2022/08/06 05:52:46;;;;;;;7.00;4.35;;;;;;;11.94;100.00;102716.59;5054694;28;20029;-62
2022/08/06 05:55:18;;;;;;;7.80;4.40;;;;;;;12.07;100.00;102713.00;5052032;28;20047;-62
2022/08/06 05:57:52;;;;;;;7.32;4.40;;;;;;;12.20;100.00;102710.28;5077845;28;20098;-62
2022/08/06 06:00:20;;;;;;;7.72;3.70;;;;;;;12.32;100.00;102715.25;5075723;28;20024;-62
2022/08/06 06:02:48;;;;;;;6.15;4.10;;;;;;;12.42;100.00;102714.06;5058576;28;20060;-62
2022/08/06 06:05:14;;;;;;;6.40;4.10;;;;;;;12.53;100.00;102711.16;5057263;28;20040;-62
2022/08/06 06:07:41;;;;;;;6.47;3.85;;;;;;;12.63;100.00;102716.03;5057909;28;20028;-63
2022/08/06 06:10:07;;;;;;;6.30;4.50;;;;;;;12.77;100.00;102721.09;5056875;28;20033;-63
2022/08/06 06:12:34;;;;;;;7.45;3.72;;;;;;;12.89;100.00;102713.03;5062559;28;20031;-62
2022/08/06 06:15:01;;;;;;;7.00;3.78;;;;;;;13.05;100.00;102717.31;5061065;28;20063;-62
2022/08/06 06:17:51;;;;;;;4.45;3.65;;;;;;;13.25;100.00;102720.03;5062443;28;20028;-62
2022/08/06 06:20:32;;;;;;;7.10;4.50;;;;;;;13.43;100.00;102717.47;5071857;28;20047;-62
2022/08/06 06:23:15;;;;;;;4.43;3.58;;;;;;;13.62;100.00;102719.31;5080710;28;20353;-62
2022/08/06 06:25:48;;;;;;;5.25;4.25;;;;;;;13.82;99.90;102724.63;5069387;28;20044;-62
2022/08/06 06:28:28;;;;;;;5.03;3.78;;;;;;;14.04;99.08;102723.03;5081464;28;20074;-62
2022/08/06 06:31:11;;;;;;;4.45;3.38;;;;;;;14.25;97.89;102728.38;5076316;28;20601;-62
2022/08/06 06:34:09;;;;;;;4.85;3.42;;;;;;;14.45;97.37;102724.91;5084785;28;20490;-63
2022/08/06 06:36:44;;;;;;;4.82;3.22;;;;;;;14.70;96.66;102724.31;5087444;28;20031;-62
2022/08/06 06:39:28;;;;;;;5.00;3.30;;;;;;;14.98;97.01;102729.91;5083703;28;20032;-62
2022/08/06 06:41:59;;;;;;;4.50;2.97;;;;;;;15.28;96.83;102731.16;5086902;28;20143;-62
2022/08/06 06:44:35;;;;;;;6.10;2.83;;;;;;;15.56;94.26;102730.59;5082222;28;20039;-63
2022/08/06 06:47:06;;;;;;;5.00;3.40;;;;;;;15.82;92.61;102735.09;5071081;28;20108;-62
2022/08/06 06:49:44;;;;;;;5.75;2.63;;;;;;;16.07;90.74;102725.66;5081207;28;20391;-62
2022/08/06 06:52:33;;;;;;;7.45;2.78;;;;;;;16.37;89.42;102730.28;5081384;28;20024;-62
2022/08/06 06:55:04;;;;;;;5.07;2.10;;;;;;;16.65;88.38;102726.09;5076099;28;20051;-62
2022/08/06 06:57:31;;;;;;;;;;;;;;;16.89;85.55;102729.53;5070302;28;20034;-62
2022/08/06 07:00:00;;;;;;;4.88;2.00;;;;;;;17.05;81.89;102725.75;5086150;28;19911;-62
2022/08/06 07:02:29;;;;;;;4.57;1.83;;;;;;;17.25;82.25;102734.28;5084408;28;20023;-62
2022/08/06 07:04:56;;;;;;;5.45;1.70;;;;;;;17.47;80.98;102732.41;5086746;28;20296;-62
2022/08/06 07:07:23;;;;;;;5.72;1.90;;;;;;;17.66;79.25;102725.16;5076587;28;20051;-62
2022/08/06 07:09:50;;;;;;;5.13;1.98;;;;;;;17.83;78.16;102732.66;5063208;28;20119;-62
2022/08/06 07:12:19;;;;;;;2.63;1.38;;;;;;;17.94;78.04;102733.00;5071004;28;20024;-62
2022/08/06 07:14:46;;;;;;;5.03;1.88;;;;;;;18.04;77.02;102736.81;5066320;28;20055;-62
2022/08/06 07:17:13;;;;;;;3.67;1.60;;;;;;;18.12;75.05;102741.44;5065496;28;20046;-62
2022/08/06 07:19:39;;;;;;;2.45;1.70;;;;;;;18.22;74.64;102742.63;5065860;28;20024;-62
2022/08/06 07:22:05;;;;;;;5.15;1.40;;;;;;;18.33;74.20;102744.72;5069248;28;20394;-62
2022/08/06 07:24:33;;;;;;;5.68;1.77;;;;;;;18.46;73.83;102741.59;5064730;28;20082;-63
2022/08/06 07:27:00;;;;;;;4.57;1.30;;;;;;;18.63;72.22;102745.56;5076001;28;20028;-62
2022/08/06 07:29:26;;;;;;;2.75;1.75;;;;;;;18.72;70.34;102754.59;5075664;28;20090;-62
2022/08/06 07:31:54;;;;;;;1.88;1.10;;;;;;;18.84;70.59;102746.16;5065642;28;20094;-62
2022/08/06 07:34:20;;;;;;;6.50;1.55;;;;;;;19.04;70.43;102747.56;5066061;28;20032;-63
2022/08/06 07:36:52;;;;;;;3.72;1.10;;;;;;;19.17;68.92;102752.34;5064706;28;20527;-62
2022/08/06 07:39:24;;;;;;;2.78;0.93;;;;;;;19.35;69.58;102756.28;5067051;28;20032;-60
2022/08/06 07:41:52;;;;;;;2.05;1.00;;;;;;;19.58;68.32;102753.34;5059433;28;20063;-60
2022/08/06 07:44:19;;;;;;;2.65;0.98;;;;;;;19.75;66.27;102758.13;5085473;28;20031;-61
2022/08/06 07:46:49;;;;;;;2.90;0.90;;;;;;;19.86;64.27;102759.25;5068945;28;20495;-60
2022/08/06 07:49:18;;;;;;;1.35;0.70;;;;;;;20.02;63.62;102757.88;5068852;28;20039;-60
2022/08/06 07:51:46;;;;;;;5.10;0.60;;;;;;;20.19;62.63;102759.13;5082160;28;20507;-60
2022/08/06 07:54:13;;;;;;;1.25;0.60;;;;;;;20.29;61.58;102758.50;5079349;28;20756;-60
2022/08/06 07:56:41;;;;;;;1.60;0.60;;;;;;;20.38;61.98;102758.69;5071329;28;20103;-60
2022/08/06 07:59:08;;;;;;;1.80;0.70;;;;;;;20.46;59.66;102763.22;5076007;28;20032;-60
2022/08/06 08:01:35;;;;;;;2.55;0.85;;;;;;;20.62;59.52;102767.94;5071001;28;20070;-60
2022/08/06 08:06:45;;;;;;;3.33;0.80;;;;;;;20.85;58.85;102772.78;5088750;28;20126;-60
2022/08/06 08:09:15;;;;;;;2.72;0.88;;;;;;;21.01;57.68;102773.13;5084529;28;20069;-60
2022/08/06 08:11:44;;;;;;;2.70;0.73;;;;;;;21.15;56.65;102761.94;5082684;28;20670;-60
2022/08/06 08:14:11;;;;;;;4.50;1.05;;;;;;;21.30;56.58;102767.47;5072279;28;20099;-61
2022/08/06 08:16:40;;;;;;;3.33;0.85;;;;;;;21.19;55.21;102763.78;5070431;28;20024;-61
2022/08/06 08:19:30;;;;;;;2.88;0.70;;;;;;;20.70;55.93;102764.59;5065766;28;20445;-61
2022/08/06 08:22:00;;;;;;;2.50;0.57;;;;;;;20.61;57.26;102766.19;5065910;28;20033;-61
2022/08/06 08:24:28;;;;;;;6.03;0.60;;;;;;;20.85;57.39;102770.16;5080579;28;20051;-61
2022/08/06 08:26:54;;;;;;;2.15;0.88;;;;;;;21.12;55.68;102765.41;5077967;28;20062;-60
2022/08/06 08:29:20;;;;;;;3.20;0.70;;;;;;;21.03;53.54;102763.47;5083914;28;20020;-61
2022/08/06 08:31:45;;;;;;;1.73;0.47;;;;;;;20.70;54.86;102772.50;5081825;28;20358;-61
2022/08/06 08:34:11;;;;;;;2.95;0.65;;;;;;;20.27;56.24;102771.59;5081745;28;20467;-61
2022/08/06 08:36:37;;;;;;;1.88;0.68;;;;;;;20.33;55.27;102765.59;5081698;28;20022;-61
2022/08/06 08:39:03;;;;;;;2.00;0.80;;;;;;;20.51;53.66;102764.19;5079541;28;20110;-61
2022/08/06 08:41:34;;;;;;;2.33;0.52;;;;;;;20.91;55.98;102768.50;5084912;28;20056;-61
2022/08/06 08:44:02;;;;;;;1.45;0.60;;;;;;;21.26;54.41;102759.50;5085831;28;20020;-61
2022/08/06 08:46:31;;;;;;;1.88;0.47;;;;;;;21.51;52.20;102766.09;5085971;28;20084;-61
2022/08/06 08:49:00;;;;;;;2.00;0.75;;;;;;;21.71;50.65;102758.47;5085410;28;20111;-61
2022/08/06 08:51:27;;;;;;;4.10;0.73;;;;;;;22.11;52.02;102772.28;5085604;28;20115;-61
2022/08/06 08:53:55;;;;;;;1.88;0.60;;;;;;;22.28;47.77;102765.47;5081141;28;20414;-61
2022/08/06 08:56:22;;;;;;;1.30;0.52;;;;;;;22.45;46.89;102770.06;5086094;28;20028;-61
2022/08/06 08:58:48;;;;;;;2.83;0.60;;;;;;;22.64;48.87;102767.69;5086376;28;20020;-61
2022/08/06 09:01:14;;;;;;;1.63;0.52;;;;;;;22.79;47.60;102767.88;5087039;28;20066;-61
2022/08/06 09:03:40;;;;;;;1.25;0.40;;;;;;;22.89;46.98;102773.25;5087147;28;20375;-61
2022/08/06 09:06:08;;;;;;;1.70;0.50;;;;;;;22.99;47.06;102771.63;5087403;28;20353;-61
2022/08/06 09:08:36;;;;;;;4.30;0.75;;;;;;;23.11;44.57;102778.78;5086305;28;20035;-62
2022/08/06 09:11:04;;;;;;;1.20;0.52;;;;;;;22.83;40.77;102774.06;5087394;28;20056;-62
2022/08/06 09:13:30;;;;;;;2.65;0.50;;;;;;;22.78;42.77;102778.41;5086940;28;20304;-61
2022/08/06 09:15:56;;;;;;;1.95;0.60;;;;;;;22.87;44.34;102782.91;5086860;28;20055;-61
2022/08/06 09:18:24;;;;;;;1.23;0.45;;;;;;;23.00;43.73;102784.84;5087153;28;20032;-62
2022/08/06 09:20:49;;;;;;;0.98;0.47;;;;;;;23.13;43.17;102792.91;5080420;28;20024;-61
2022/08/06 09:23:16;;;;;;;2.60;0.50;;;;;;;23.01;43.03;102776.03;5087189;28;20082;-61
2022/08/06 09:25:52;;;;;;;1.58;0.50;;;;;;;23.13;43.36;102777.03;5086724;28;20023;-62
2022/08/06 09:28:36;;;;;;;2.95;0.60;;;;;;;23.08;41.44;102773.47;5086104;28;20028;-61
2022/08/06 09:31:10;;;;;;;1.08;0.60;;;;;;;23.24;44.34;102787.72;5086943;28;20651;-62
2022/08/06 09:33:42;;;;;;;2.55;0.80;;;;;;;23.01;39.29;102780.41;5086713;28;20020;-61
2022/08/06 09:36:10;;;;;;;1.20;0.50;;;;;;;23.13;41.74;102777.03;5086957;28;20392;-61
2022/08/06 09:39:05;;;;;;;2.35;0.60;;;;;;;23.19;44.60;102777.06;5086257;28;20100;-62
2022/08/06 09:41:30;;;;;;;3.47;0.90;;;;;;;23.30;43.73;102773.63;5085784;28;20055;-61
2022/08/06 09:43:57;;;;;;;2.70;0.52;;;;;;;23.43;45.17;102785.25;5086790;28;20032;-62
2022/08/06 09:46:39;;;;;;;1.40;0.40;;;;;;;23.60;43.52;102782.75;5088034;28;20085;-62
2022/08/06 09:49:05;;;;;;;1.13;0.35;;;;;;;23.77;45.28;102789.91;5075443;28;20549;-61
2022/08/06 09:51:34;;;;;;;1.55;0.30;;;;;;;23.71;42.35;102786.34;5077048;28;20107;-62
2022/08/06 09:54:00;;;;;;;1.60;0.30;;;;;;;23.38;41.95;102785.19;5090544;28;20032;-62
2022/08/06 09:56:26;;;;;;;0.68;0.40;;;;;;;23.22;43.65;102790.34;5090405;28;20415;-62
2022/08/06 09:58:59;;;;;;;1.77;0.52;;;;;;;23.33;43.22;102784.25;5090583;28;20031;-61
2022/08/06 10:01:26;;;;;;;0.73;0.35;;;;;;;23.29;44.84;102795.69;5090709;28;20028;-61
2022/08/06 10:03:53;;;;;;;1.15;0.63;;;;;;;23.29;45.03;102785.09;5089992;28;20020;-62
2022/08/06 10:06:20;;;;;;;1.42;0.40;;;;;;;23.49;44.49;102791.47;5090409;28;20028;-61
2022/08/06 10:08:50;;;;;;;2.25;0.82;;;;;;;23.74;44.18;102794.34;5090305;28;20110;-62
2022/08/06 10:11:32;;;;;;;2.03;0.50;;;;;;;23.88;43.76;102788.25;5090452;28;20033;-61
2022/08/06 10:13:58;;;;;;;1.50;0.50;;;;;;;24.04;42.55;102793.63;5089860;28;20306;-62
2022/08/06 10:16:32;;;;;;;0.70;0.30;;;;;;;24.12;42.39;102781.34;5090072;28;20078;-61
2022/08/06 10:18:59;;;;;;;2.08;0.50;;;;;;;24.14;40.87;102778.69;5090212;28;20528;-61
2022/08/06 10:21:32;;;;;;;3.08;0.35;;;;;;;24.03;40.83;102776.88;5090657;28;20024;-61
2022/08/06 10:24:01;;;;;;;2.28;0.68;;;;;;;24.26;41.10;102777.88;5090156;28;20106;-61
2022/08/06 10:26:29;;;;;;;1.70;0.65;;;;;;;24.35;40.14;102777.94;5090304;28;20012;-62
2022/08/06 10:29:10;;;;;;;1.27;0.40;;;;;;;24.39;39.15;102777.09;5090325;28;20073;-62
2022/08/06 10:31:36;;;;;;;2.90;0.43;;;;;;;24.53;41.41;102769.19;5072437;28;20024;-61
2022/08/06 10:34:24;;;;;;;0.95;0.32;;;;;;;24.34;39.30;102765.56;5090019;28;20031;-62
2022/08/06 10:36:56;;;;;;;0.93;0.20;;;;;;;23.88;39.28;102772.34;5067924;28;20028;-62
2022/08/06 10:39:27;;;;;;;0.63;0.30;;;;;;;23.74;39.55;102770.53;5085429;28;20028;-62
2022/08/06 10:41:54;;;;;;;1.17;0.35;;;;;;;23.78;40.55;102770.53;5089875;28;20121;-62
2022/08/06 10:44:22;;;;;;;1.20;0.30;;;;;;;23.85;41.89;102764.41;5090112;28;20032;-62
2022/08/06 10:46:49;;;;;;;2.10;0.50;;;;;;;23.93;39.97;102759.16;5089832;28;20027;-62
2022/08/06 10:49:16;;;;;;;1.67;0.50;;;;;;;24.15;41.69;102753.97;5089869;28;20490;-62
2022/08/06 10:51:41;;;;;;;2.67;0.45;;;;;;;24.23;40.41;102758.47;5088975;28;20032;-62
2022/08/06 10:54:07;;;;;;;1.40;0.65;;;;;;;24.29;39.46;102754.06;5089862;28;20035;-62
2022/08/06 10:56:33;;;;;;;1.42;0.40;;;;;;;24.38;40.63;102750.56;5090130;28;20030;-62
2022/08/06 10:58:59;;;;;;;0.90;0.40;;;;;;;24.51;41.34;102755.03;5088722;28;20123;-62
2022/08/06 11:01:35;;;;;;;0.80;0.45;;;;;;;24.60;38.74;102756.84;5089414;28;20020;-62
2022/08/06 11:04:37;;;;;;;1.75;0.45;;;;;;;24.32;36.19;102746.16;5085176;28;20112;-62
2022/08/06 11:07:05;;;;;;;0.80;0.30;;;;;;;24.32;36.93;102748.81;5052818;28;20098;-61
2022/08/06 11:09:52;;;;;;;3.47;0.50;;;;;;;24.37;38.40;102749.69;5089419;28;20031;-61
2022/08/06 11:12:30;;;;;;;1.73;0.55;;;;;;;24.42;38.93;102742.66;5088541;28;20085;-61
2022/08/06 11:14:58;;;;;;;1.30;0.50;;;;;;;24.61;40.55;102742.69;5089356;28;20076;-62
2022/08/06 11:17:24;;;;;;;0.93;0.50;;;;;;;24.79;39.18;102751.59;5088644;28;20451;-62
2022/08/06 11:19:49;;;;;;;1.23;0.50;;;;;;;24.86;37.33;102742.75;5089021;28;20016;-62
2022/08/06 11:22:37;;;;;;;2.50;0.40;;;;;;;24.58;36.80;102748.00;5088341;28;20024;-62
2022/08/06 11:25:08;;;;;;;1.90;0.50;;;;;;;24.27;37.45;102750.56;5089421;28;20615;-62
2022/08/06 11:28:01;;;;;;;1.60;0.20;;;;;;;24.03;36.69;102750.41;5087030;28;20483;-61
2022/08/06 11:30:39;;;;;;;0.55;0.30;;;;;;;24.08;36.53;102747.75;5080906;28;20032;-62
2022/08/06 11:33:04;;;;;;;0.77;0.50;;;;;;;24.12;37.19;102738.97;5088263;28;20032;-62
2022/08/06 11:35:32;;;;;;;1.45;0.32;;;;;;;24.29;38.48;102740.81;5089351;28;20129;-61
2022/08/06 11:38:02;;;;;;;1.42;0.28;;;;;;;24.30;37.09;102732.00;5088923;28;20418;-62